createdAt,value
2019-02-07T00:01:15.783Z,0.60
2019-02-07T00:02:21.636Z,0.60
2019-02-07T00:03:26.837Z,0.50
2019-02-07T00:04:31.869Z,0.50
2019-02-07T00:05:36.909Z,0.50
2019-02-07T00:06:42.001Z,0.50
2019-02-07T00:07:47.086Z,0.40
2019-02-07T00:08:52.488Z,0.50
2019-02-07T00:09:57.517Z,0.50
2019-02-07T00:11:02.531Z,0.50
2019-02-07T00:12:07.649Z,0.50
2019-02-07T00:13:13.756Z,0.50
2019-02-07T00:14:18.843Z,0.50
2019-02-07T00:15:23.963Z,0.50
2019-02-07T00:16:30.061Z,0.50
2019-02-07T00:17:35.110Z,0.50
2019-02-07T00:18:40.202Z,0.50
2019-02-07T00:19:45.297Z,0.50
2019-02-07T00:20:50.405Z,0.50
2019-02-07T00:21:55.811Z,0.50
2019-02-07T00:23:01.297Z,0.60
2019-02-07T00:24:06.822Z,0.60
2019-02-07T00:25:12.320Z,0.60
2019-02-07T00:26:17.407Z,0.60
2019-02-07T00:27:22.521Z,0.60
2019-02-07T00:28:27.543Z,0.60
2019-02-07T00:29:32.923Z,0.60
2019-02-07T00:30:37.950Z,0.60
2019-02-07T00:31:42.999Z,0.70
2019-02-07T00:32:47.981Z,0.70
2019-02-07T00:33:53.045Z,0.70
2019-02-07T00:34:58.119Z,0.70
2019-02-07T00:36:03.399Z,0.70
2019-02-07T00:37:09.608Z,0.70
2019-02-07T00:38:14.750Z,0.70
2019-02-07T00:39:19.836Z,0.70
2019-02-07T00:40:24.852Z,0.70
2019-02-07T00:41:29.965Z,0.70
2019-02-07T00:42:35.053Z,0.70
2019-02-07T00:43:40.355Z,0.70
2019-02-07T00:44:50.512Z,0.70
2019-02-07T00:45:52.155Z,0.70
2019-02-07T00:46:57.170Z,0.70
2019-02-07T00:48:02.207Z,0.70
2019-02-07T00:49:08.275Z,0.70
2019-02-07T00:50:14.044Z,0.70
2019-02-07T00:51:19.149Z,0.70
2019-02-07T00:52:24.263Z,0.70
2019-02-07T00:53:29.339Z,0.70
2019-02-07T00:54:34.356Z,0.70
2019-02-07T00:55:39.536Z,0.70
2019-02-07T00:56:44.545Z,0.70
2019-02-07T00:57:49.673Z,0.80
2019-02-07T00:58:54.758Z,0.70
2019-02-07T00:59:59.825Z,0.60
2019-02-07T01:01:06.709Z,0.50
2019-02-07T01:02:11.841Z,0.50
2019-02-07T01:03:17.920Z,0.50
2019-02-07T01:04:23.037Z,0.50
2019-02-07T01:05:28.500Z,0.50
2019-02-07T01:06:34.029Z,0.50
2019-02-07T01:07:39.051Z,0.50
2019-02-07T01:08:44.161Z,0.50
2019-02-07T01:09:49.636Z,0.50
2019-02-07T01:10:54.668Z,0.60
2019-02-07T01:11:59.690Z,0.60
2019-02-07T01:13:05.016Z,0.60
2019-02-07T01:14:10.163Z,0.50
2019-02-07T01:15:15.836Z,0.50
2019-02-07T01:16:20.846Z,0.50
2019-02-07T01:17:26.180Z,0.50
2019-02-07T01:18:32.660Z,0.50
2019-02-07T01:19:39.696Z,0.50
2019-02-07T01:20:44.805Z,0.50
2019-02-07T01:21:49.803Z,0.50
2019-02-07T01:22:55.815Z,0.50
2019-02-07T01:24:00.953Z,0.50
2019-02-07T01:25:08.563Z,0.50
2019-02-07T01:26:14.505Z,0.60
2019-02-07T01:27:19.761Z,0.60
2019-02-07T01:28:25.153Z,0.60
2019-02-07T01:29:30.146Z,0.60
2019-02-07T01:30:35.150Z,0.60
2019-02-07T01:31:40.236Z,0.60
2019-02-07T01:32:45.421Z,0.60
2019-02-07T01:33:50.532Z,0.50
2019-02-07T01:34:55.543Z,0.50
2019-02-07T01:36:00.676Z,0.50
2019-02-07T01:37:05.837Z,0.50
2019-02-07T01:38:10.852Z,0.50
2019-02-07T01:39:15.912Z,0.50
2019-02-07T01:40:21.257Z,0.60
2019-02-07T01:41:26.363Z,0.50
2019-02-07T01:42:31.360Z,0.50
2019-02-07T01:43:36.385Z,0.50
2019-02-07T01:44:41.493Z,0.50
2019-02-07T01:45:46.599Z,0.50
2019-02-07T01:46:52.069Z,0.50
2019-02-07T01:47:57.426Z,0.50
2019-02-07T01:49:03.208Z,0.50
2019-02-07T01:50:10.409Z,0.50
2019-02-07T01:51:15.412Z,0.50
2019-02-07T01:52:20.440Z,0.60
2019-02-07T01:53:25.514Z,0.50
2019-02-07T01:54:30.517Z,0.50
2019-02-07T01:55:35.658Z,0.50
2019-02-07T01:56:40.763Z,0.50
2019-02-07T01:57:45.865Z,0.50
2019-02-07T01:58:50.887Z,0.50
2019-02-07T01:59:56.141Z,0.50
2019-02-07T02:01:01.147Z,0.50
2019-02-07T02:02:06.312Z,0.50
2019-02-07T02:03:11.309Z,0.50
2019-02-07T02:04:17.515Z,0.50
2019-02-07T02:05:22.612Z,0.50
2019-02-07T02:06:27.624Z,0.50
2019-02-07T02:07:33.087Z,0.50
2019-02-07T02:08:38.447Z,0.40
2019-02-07T02:09:43.568Z,0.30
2019-02-07T02:10:48.672Z,0.20
2019-02-07T02:11:53.665Z,0.20
2019-02-07T02:12:58.876Z,0.20
2019-02-07T02:14:04.301Z,0.20
2019-02-07T02:15:09.699Z,0.20
2019-02-07T02:16:14.722Z,0.20
2019-02-07T02:17:19.229Z,0.20
2019-02-07T02:18:36.141Z,0.20
2019-02-07T02:19:52.805Z,0.10
2019-02-07T02:21:09.427Z,0.10
2019-02-07T02:22:25.978Z,0.20
2019-02-07T02:23:43.338Z,0.10
2019-02-07T02:24:59.696Z,0.10
2019-02-07T02:26:16.253Z,0.10
2019-02-07T02:27:32.792Z,0.10
2019-02-07T02:28:49.311Z,0.10
2019-02-07T02:30:06.915Z,0.10
2019-02-07T02:31:24.128Z,0.20
2019-02-07T02:32:40.745Z,0.10
2019-02-07T02:33:57.342Z,0.20
2019-02-07T02:35:13.936Z,0.20
2019-02-07T02:36:30.904Z,0.20
2019-02-07T02:37:48.073Z,0.10
2019-02-07T02:39:04.671Z,0.20
2019-02-07T02:40:23.162Z,0.10
2019-02-07T02:41:39.670Z,0.10
2019-02-07T02:42:56.871Z,0.00
2019-02-07T02:44:13.953Z,0.00
2019-02-07T02:45:37.418Z,0.00
2019-02-07T02:46:49.312Z,0.00
2019-02-07T02:48:05.595Z,0.00
2019-02-07T02:49:22.795Z,0.00
2019-02-07T02:50:39.210Z,0.00
2019-02-07T02:51:55.665Z,-0.10
2019-02-07T02:53:12.108Z,-0.10
2019-02-07T02:56:49.159Z,-0.10
2019-02-07T02:58:05.421Z,-0.20
2019-02-07T03:01:30.038Z,-0.30
2019-02-07T03:03:05.354Z,-0.20
2019-02-07T03:04:31.462Z,-0.20
2019-02-07T03:06:07.391Z,-0.20
2019-02-07T03:07:42.894Z,-0.20
2019-02-07T03:09:18.285Z,-0.20
2019-02-07T03:10:53.781Z,-0.20
2019-02-07T03:12:29.108Z,-0.20
2019-02-07T03:14:04.470Z,-0.10
2019-02-07T03:17:06.444Z,-0.10
2019-02-07T03:18:37.796Z,0.00
2019-02-07T03:20:13.679Z,0.00
2019-02-07T03:21:40.652Z,0.00
2019-02-07T03:23:16.070Z,0.00
2019-02-07T03:24:52.286Z,0.00
2019-02-07T03:26:27.624Z,0.10
2019-02-07T03:28:03.076Z,0.10
2019-02-07T03:30:00.268Z,0.10
2019-02-07T03:31:37.881Z,0.10
2019-02-07T03:33:13.162Z,0.00
2019-02-07T03:34:48.719Z,0.00
2019-02-07T03:36:24.251Z,0.10
2019-02-07T03:37:54.588Z,0.10
2019-02-07T03:39:18.585Z,0.10
2019-02-07T03:40:54.286Z,0.10
2019-02-07T03:42:36.312Z,0.00
2019-02-07T03:44:11.649Z,0.00
2019-02-07T03:45:40.447Z,-0.20
2019-02-07T03:47:15.809Z,-0.30
2019-02-07T03:48:41.482Z,-0.50
2019-02-07T03:50:40.962Z,-0.50
2019-02-07T03:52:15.578Z,-0.60
2019-02-07T03:53:52.259Z,-0.50
2019-02-07T03:55:23.097Z,-0.60
2019-02-07T03:56:58.338Z,-0.60
2019-02-07T03:58:33.633Z,-0.60
2019-02-07T04:00:09.918Z,-0.50
2019-02-07T04:01:42.205Z,-0.50
2019-02-07T04:03:18.394Z,-0.50
2019-02-07T04:04:53.858Z,-0.50
2019-02-07T04:06:29.205Z,-0.50
2019-02-07T04:08:05.906Z,-0.50
2019-02-07T04:10:02.896Z,-0.40
2019-02-07T04:11:39.097Z,-0.40
2019-02-07T04:13:15.442Z,-0.30
2019-02-07T04:14:50.687Z,-0.30
2019-02-07T04:16:26.008Z,-0.20
2019-02-07T04:18:07.598Z,-0.20
2019-02-07T04:19:43.042Z,-0.10
2019-02-07T04:21:18.523Z,-0.10
2019-02-07T04:23:01.629Z,0.00
2019-02-07T04:24:38.291Z,0.00
2019-02-07T04:26:14.430Z,0.10
2019-02-07T04:27:50.084Z,0.10
2019-02-07T04:29:22.575Z,0.30
2019-02-07T04:30:51.163Z,0.30
2019-02-07T04:32:27.247Z,0.30
2019-02-07T04:34:02.486Z,0.40
2019-02-07T04:35:41.513Z,0.40
2019-02-07T04:37:41.049Z,0.40
2019-02-07T04:39:17.147Z,0.50
2019-02-07T04:40:45.313Z,0.60
2019-02-07T04:42:21.213Z,0.70
2019-02-07T04:43:47.100Z,0.70
2019-02-07T04:44:59.489Z,0.70
2019-02-07T04:46:41.989Z,0.80
2019-02-07T04:48:06.049Z,0.80
2019-02-07T04:49:20.716Z,0.80
2019-02-07T04:50:43.484Z,0.90
2019-02-07T04:52:10.452Z,0.90
2019-02-07T04:53:40.405Z,1.00
2019-02-07T04:55:13.731Z,0.90
2019-02-07T04:56:36.926Z,0.90
2019-02-07T04:57:56.938Z,0.90
2019-02-07T04:59:19.958Z,0.90
2019-02-07T05:00:45.572Z,0.80
2019-02-07T05:02:08.230Z,0.70
2019-02-07T05:03:26.006Z,0.70
2019-02-07T05:05:00.295Z,0.70
2019-02-07T05:06:21.570Z,0.80
2019-02-07T05:07:44.331Z,0.80
2019-02-07T05:09:07.377Z,0.80
2019-02-07T05:10:37.795Z,0.80
2019-02-07T05:12:01.835Z,0.70
2019-02-07T05:13:35.785Z,0.60
2019-02-07T05:14:49.585Z,0.70
2019-02-07T05:16:39.280Z,0.70
2019-02-07T05:17:57.533Z,0.70
2019-02-07T05:19:18.682Z,0.80
2019-02-07T05:21:01.341Z,0.80
2019-02-07T05:22:33.756Z,0.90
2019-02-07T05:24:03.861Z,0.90
2019-02-07T05:25:27.677Z,0.90
2019-02-07T05:26:42.370Z,0.90
2019-02-07T05:28:05.294Z,1.00
2019-02-07T05:29:27.133Z,1.00
2019-02-07T05:30:58.899Z,1.00
2019-02-07T05:32:22.072Z,1.10
2019-02-07T05:33:49.160Z,1.10
2019-02-07T05:35:16.217Z,1.10
2019-02-07T05:36:58.711Z,1.00
2019-02-07T05:38:37.662Z,0.90
2019-02-07T05:39:50.150Z,0.80
2019-02-07T05:41:16.840Z,0.80
2019-02-07T05:42:39.633Z,0.80
2019-02-07T05:44:02.339Z,0.70
2019-02-07T05:45:25.644Z,0.70
2019-02-07T05:46:52.487Z,0.70
2019-02-07T05:48:23.878Z,0.70
2019-02-07T05:49:56.160Z,0.70
2019-02-07T05:51:19.192Z,0.70
2019-02-07T05:52:41.642Z,0.60
2019-02-07T05:54:17.920Z,0.50
2019-02-07T05:55:40.649Z,0.60
2019-02-07T05:57:06.084Z,0.60
2019-02-07T05:58:39.554Z,0.50
2019-02-07T06:00:02.804Z,0.50
2019-02-07T06:01:39.422Z,0.40
2019-02-07T06:03:12.629Z,0.40
2019-02-07T06:04:35.349Z,0.30
2019-02-07T06:05:58.293Z,0.30
2019-02-07T06:07:37.467Z,0.30
2019-02-07T06:09:01.932Z,0.30
2019-02-07T06:10:38.281Z,0.30
2019-02-07T06:12:20.774Z,0.20
2019-02-07T06:13:43.686Z,0.30
2019-02-07T06:15:10.805Z,0.40
2019-02-07T06:16:47.371Z,0.30
2019-02-07T06:18:16.623Z,0.40
2019-02-07T06:19:32.262Z,0.40
2019-02-07T06:20:51.774Z,0.40
2019-02-07T06:22:14.794Z,0.40
2019-02-07T06:23:41.671Z,0.40
2019-02-07T06:25:13.595Z,0.40
2019-02-07T06:26:40.912Z,0.40
2019-02-07T06:28:05.226Z,0.40
2019-02-07T06:29:47.952Z,0.40
2019-02-07T06:31:17.876Z,0.40
2019-02-07T06:32:53.940Z,0.50
2019-02-07T06:34:28.999Z,0.50
2019-02-07T06:35:40.693Z,0.60
2019-02-07T06:37:10.894Z,0.70
2019-02-07T06:38:44.502Z,0.80
2019-02-07T06:40:14.586Z,0.90
2019-02-07T06:41:31.385Z,1.00
2019-02-07T06:43:04.572Z,1.10
2019-02-07T06:44:17.215Z,1.10
2019-02-07T06:45:44.509Z,1.10
2019-02-07T06:47:17.648Z,1.10
2019-02-07T06:48:44.513Z,1.10
2019-02-07T06:50:05.086Z,1.20
2019-02-07T06:51:27.068Z,1.20
2019-02-07T06:52:53.936Z,1.20
2019-02-07T06:54:17.773Z,1.20
2019-02-07T06:55:33.441Z,1.20
2019-02-07T06:57:00.689Z,1.20
2019-02-07T06:58:30.434Z,1.10
2019-02-07T06:59:53.150Z,1.10
2019-02-07T07:01:20.641Z,1.10
2019-02-07T07:02:47.840Z,1.00
2019-02-07T07:04:14.873Z,1.00
2019-02-07T07:05:42.021Z,0.90
2019-02-07T07:06:59.667Z,0.90
2019-02-07T07:08:42.421Z,0.90
2019-02-07T07:10:06.529Z,0.90
2019-02-07T07:11:24.135Z,0.90
2019-02-07T07:12:46.933Z,0.80
2019-02-07T07:14:01.028Z,0.90
2019-02-07T07:15:22.827Z,0.90
2019-02-07T07:16:34.637Z,0.90
2019-02-07T07:17:58.742Z,0.90
2019-02-07T07:19:22.800Z,0.90
2019-02-07T07:20:38.241Z,0.90
2019-02-07T07:22:08.640Z,0.90
2019-02-07T07:23:45.077Z,1.00
2019-02-07T07:25:14.623Z,1.00
2019-02-07T07:26:47.713Z,1.10
2019-02-07T07:28:06.471Z,1.20
2019-02-07T07:29:33.367Z,1.30
2019-02-07T07:31:00.387Z,1.40
2019-02-07T07:32:25.505Z,1.40
2019-02-07T07:33:48.890Z,1.50
2019-02-07T07:35:11.828Z,1.60
2019-02-07T07:36:28.521Z,1.70
2019-02-07T07:37:58.656Z,1.70
2019-02-07T07:39:27.541Z,1.70
2019-02-07T07:40:47.388Z,1.80
2019-02-07T07:42:14.448Z,1.80
2019-02-07T07:43:41.300Z,1.90
2019-02-07T07:45:05.469Z,2.00
2019-02-07T07:46:33.335Z,2.00
2019-02-07T07:47:56.310Z,2.00
2019-02-07T07:49:19.073Z,2.10
2019-02-07T07:50:46.437Z,2.10
2019-02-07T07:52:10.939Z,2.30
2019-02-07T07:53:31.809Z,2.40
2019-02-07T07:54:54.832Z,2.50
2019-02-07T07:56:17.802Z,2.40
2019-02-07T07:57:40.784Z,2.40
2019-02-07T07:59:17.537Z,2.50
2019-02-07T08:01:00.052Z,2.50
2019-02-07T08:02:36.433Z,2.60
2019-02-07T08:04:00.484Z,2.60
2019-02-07T08:05:15.890Z,2.70
2019-02-07T08:06:30.242Z,2.70
2019-02-07T08:07:53.378Z,2.70
2019-02-07T08:09:29.606Z,2.70
2019-02-07T08:10:53.918Z,2.70
2019-02-07T08:12:15.876Z,2.70
2019-02-07T08:13:35.623Z,2.70
2019-02-07T08:15:03.904Z,2.70
2019-02-07T08:16:32.244Z,2.80
2019-02-07T08:18:08.608Z,2.90
2019-02-07T08:19:35.766Z,2.90
2019-02-07T08:20:59.197Z,3.10
2019-02-07T08:22:32.563Z,3.20
2019-02-07T08:23:55.254Z,3.30
2019-02-07T08:25:23.214Z,3.30
2019-02-07T08:26:53.916Z,3.40
2019-02-07T08:28:17.200Z,3.40
2019-02-07T08:29:40.056Z,3.50
2019-02-07T08:31:10.584Z,3.50
2019-02-07T08:32:37.741Z,3.50
2019-02-07T08:34:20.175Z,3.50
2019-02-07T08:35:42.981Z,3.60
2019-02-07T08:37:12.785Z,3.60
2019-02-07T08:38:35.701Z,3.70
2019-02-07T08:40:05.740Z,3.70
2019-02-07T08:41:29.156Z,3.80
2019-02-07T08:42:59.000Z,3.80
2019-02-07T08:44:15.356Z,3.80
2019-02-07T08:45:48.720Z,3.80
2019-02-07T08:47:12.211Z,3.80
2019-02-07T08:48:25.730Z,3.80
2019-02-07T08:49:50.711Z,3.80
2019-02-07T08:51:05.042Z,3.80
2019-02-07T08:52:39.600Z,3.80
2019-02-07T08:54:06.696Z,3.80
2019-02-07T08:55:29.402Z,3.90
2019-02-07T08:56:47.825Z,3.90
2019-02-07T08:58:09.333Z,3.80
2019-02-07T08:59:36.422Z,3.80
2019-02-07T09:01:00.869Z,3.80
2019-02-07T09:02:23.407Z,3.90
2019-02-07T09:03:38.536Z,3.90
2019-02-07T09:04:59.168Z,4.00
2019-02-07T09:06:23.498Z,4.10
2019-02-07T09:08:02.980Z,4.20
2019-02-07T09:09:29.819Z,4.30
2019-02-07T09:10:56.666Z,4.40
2019-02-07T09:12:18.574Z,4.40
2019-02-07T09:13:41.289Z,4.60
2019-02-07T09:15:12.619Z,4.70
2019-02-07T09:16:29.885Z,4.80
2019-02-07T09:18:11.397Z,4.90
2019-02-07T09:19:30.894Z,5.00
2019-02-07T09:20:54.997Z,5.10
2019-02-07T09:22:24.421Z,5.10
2019-02-07T09:23:48.473Z,5.20
2019-02-07T09:25:18.774Z,5.30
2019-02-07T09:26:51.841Z,5.30
2019-02-07T09:28:28.002Z,5.40
2019-02-07T09:30:10.163Z,5.40
2019-02-07T09:31:43.325Z,5.40
2019-02-07T09:33:16.941Z,5.40
2019-02-07T09:34:42.012Z,5.40
2019-02-07T09:36:05.731Z,5.40
2019-02-07T09:37:33.145Z,5.40
2019-02-07T09:38:57.233Z,5.40
2019-02-07T09:40:27.322Z,5.50
2019-02-07T09:41:54.403Z,5.50
2019-02-07T09:43:36.902Z,5.60
2019-02-07T09:44:58.013Z,5.70
2019-02-07T09:46:15.564Z,5.80
2019-02-07T09:47:35.028Z,5.90
2019-02-07T09:48:58.443Z,5.90
2019-02-07T09:50:31.740Z,6.10
2019-02-07T09:51:51.953Z,6.10
2019-02-07T09:53:23.730Z,6.20
2019-02-07T09:54:40.615Z,6.40
2019-02-07T09:56:03.401Z,6.50
2019-02-07T09:57:26.289Z,6.70
2019-02-07T09:59:03.393Z,6.80
2019-02-07T10:00:22.143Z,6.90
2019-02-07T10:01:46.278Z,7.00
2019-02-07T10:03:04.454Z,7.10
2019-02-07T10:04:28.642Z,7.10
2019-02-07T10:05:52.047Z,7.20
2019-02-07T10:07:14.768Z,7.30
2019-02-07T10:08:38.915Z,7.30
2019-02-07T10:10:05.945Z,7.30
2019-02-07T10:11:28.940Z,7.30
2019-02-07T10:13:05.105Z,7.30
2019-02-07T10:14:35.534Z,7.30
2019-02-07T10:16:00.028Z,7.40
2019-02-07T10:17:27.392Z,7.40
2019-02-07T10:19:00.697Z,7.40
2019-02-07T10:20:22.262Z,7.40
2019-02-07T10:21:55.447Z,7.40
2019-02-07T10:23:20.100Z,7.40
2019-02-07T10:24:44.168Z,7.40
2019-02-07T10:26:08.239Z,7.30
2019-02-07T10:27:35.359Z,7.10
2019-02-07T10:29:14.810Z,7.10
2019-02-07T10:30:33.456Z,7.00
2019-02-07T10:32:12.540Z,6.90
2019-02-07T10:33:35.458Z,6.90
2019-02-07T10:34:59.488Z,6.90
2019-02-07T10:36:22.342Z,6.80
2019-02-07T10:37:42.742Z,6.70
2019-02-07T10:38:56.152Z,6.70
2019-02-07T10:40:26.278Z,6.60
2019-02-07T10:41:50.436Z,6.60
2019-02-07T10:43:04.871Z,6.60
2019-02-07T10:44:40.113Z,6.60
2019-02-07T10:46:15.522Z,6.50
2019-02-07T10:47:51.013Z,6.60
2019-02-07T10:49:26.306Z,6.60
2019-02-07T10:51:02.508Z,6.50
2019-02-07T10:52:40.168Z,6.50
2019-02-07T10:54:35.810Z,6.50
2019-02-07T10:56:11.109Z,6.50
2019-02-07T10:57:46.602Z,6.50
2019-02-07T10:59:15.776Z,6.40
2019-02-07T11:00:51.107Z,6.50
2019-02-07T11:02:32.605Z,6.60
2019-02-07T11:04:12.704Z,6.70
2019-02-07T11:05:55.818Z,6.80
2019-02-07T11:07:28.294Z,6.90
2019-02-07T11:08:58.766Z,7.00
2019-02-07T11:10:34.837Z,7.00
2019-02-07T11:12:13.948Z,7.10
2019-02-07T11:13:52.521Z,7.20
2019-02-07T11:15:55.333Z,7.30
2019-02-07T11:17:31.364Z,7.40
2019-02-07T11:19:06.836Z,7.50
2019-02-07T11:20:44.282Z,7.50
2019-02-07T11:22:19.795Z,7.60
2019-02-07T11:23:58.275Z,7.60
2019-02-07T11:25:37.047Z,7.70
2019-02-07T11:27:32.214Z,7.80
2019-02-07T11:29:00.807Z,7.90
2019-02-07T11:30:38.537Z,8.00
2019-02-07T11:32:17.031Z,8.10
2019-02-07T11:33:39.956Z,8.10
2019-02-07T11:35:02.939Z,8.10
2019-02-07T11:36:26.177Z,8.10
2019-02-07T11:37:43.214Z,8.00
2019-02-07T11:39:05.236Z,8.00
2019-02-07T11:40:38.239Z,7.90
2019-02-07T11:42:10.322Z,7.90
2019-02-07T11:43:42.545Z,7.90
2019-02-07T11:45:18.979Z,7.90
2019-02-07T11:46:42.521Z,7.90
2019-02-07T11:48:16.141Z,7.80
2019-02-07T11:49:40.486Z,7.80
2019-02-07T11:51:02.472Z,7.80
2019-02-07T11:52:34.336Z,7.90
2019-02-07T11:53:56.986Z,7.90
2019-02-07T11:55:16.025Z,7.80
2019-02-07T11:56:38.908Z,7.70
2019-02-07T11:58:11.805Z,7.60
2019-02-07T11:59:46.560Z,7.40
2019-02-07T12:01:07.145Z,7.10
2019-02-07T12:02:37.753Z,6.80
2019-02-07T12:04:11.357Z,6.70
2019-02-07T12:05:38.260Z,6.50
2019-02-07T12:06:58.164Z,6.50
2019-02-07T12:08:19.278Z,6.50
2019-02-07T12:10:02.453Z,6.50
2019-02-07T12:11:28.081Z,6.60
2019-02-07T12:12:51.548Z,6.60
2019-02-07T12:14:15.762Z,6.50
2019-02-07T12:15:39.908Z,6.50
2019-02-07T12:17:02.707Z,6.60
2019-02-07T12:18:26.632Z,6.70
2019-02-07T12:20:00.817Z,6.70
2019-02-07T12:21:32.391Z,6.60
2019-02-07T12:22:59.928Z,6.60
2019-02-07T12:24:23.263Z,6.70
2019-02-07T12:25:48.033Z,6.80
2019-02-07T12:27:30.428Z,6.80
2019-02-07T12:28:53.389Z,6.90
2019-02-07T12:30:26.748Z,7.00
2019-02-07T12:31:50.830Z,7.00
2019-02-07T12:33:19.018Z,6.90
2019-02-07T12:34:49.101Z,7.10
2019-02-07T12:36:15.932Z,7.30
2019-02-07T12:37:38.752Z,7.60
2019-02-07T12:39:06.462Z,7.80
2019-02-07T12:40:23.044Z,8.00
2019-02-07T12:41:45.592Z,8.10
2019-02-07T12:43:06.208Z,8.30
2019-02-07T12:44:29.644Z,8.40
2019-02-07T12:45:57.186Z,8.40
2019-02-07T12:47:22.287Z,8.60
2019-02-07T12:48:45.159Z,8.70
2019-02-07T12:50:07.837Z,8.80
2019-02-07T12:51:31.969Z,8.80
2019-02-07T12:53:03.642Z,8.90
2019-02-07T12:54:34.779Z,8.90
2019-02-07T12:56:04.712Z,8.90
2019-02-07T12:57:28.794Z,8.90
2019-02-07T12:58:53.501Z,8.90
2019-02-07T13:00:26.413Z,8.90
2019-02-07T13:01:42.564Z,8.90
2019-02-07T13:03:06.268Z,9.00
2019-02-07T13:04:38.786Z,9.10
2019-02-07T13:06:08.491Z,9.30
2019-02-07T13:07:35.662Z,9.50
2019-02-07T13:08:58.472Z,9.70
2019-02-07T13:10:23.891Z,9.80
2019-02-07T13:11:51.014Z,9.90
2019-02-07T13:13:14.338Z,10.00
2019-02-07T13:14:31.592Z,10.10
2019-02-07T13:15:54.304Z,10.20
2019-02-07T13:17:07.378Z,10.30
2019-02-07T13:18:37.296Z,10.30
2019-02-07T13:20:00.466Z,10.30
2019-02-07T13:21:18.864Z,10.40
2019-02-07T13:22:48.754Z,10.40
2019-02-07T13:24:11.977Z,10.40
2019-02-07T13:25:34.781Z,10.30
2019-02-07T13:26:58.649Z,10.20
2019-02-07T13:28:21.398Z,10.30
2019-02-07T13:29:44.066Z,10.20
2019-02-07T13:31:26.419Z,10.10
2019-02-07T13:32:50.047Z,10.00
2019-02-07T13:34:12.932Z,10.00
2019-02-07T13:35:35.920Z,10.00
2019-02-07T13:36:58.687Z,10.00
2019-02-07T13:38:13.637Z,10.10
2019-02-07T13:39:53.334Z,10.10
2019-02-07T13:41:16.485Z,10.20
2019-02-07T13:42:46.545Z,10.00
2019-02-07T13:44:17.050Z,9.90
2019-02-07T13:45:47.154Z,9.70
2019-02-07T13:47:09.876Z,9.70
2019-02-07T13:48:42.991Z,9.80
2019-02-07T13:50:07.150Z,9.80
2019-02-07T13:51:40.618Z,9.80
2019-02-07T13:52:58.498Z,9.90
2019-02-07T13:54:25.296Z,10.00
2019-02-07T13:55:45.892Z,9.80
2019-02-07T13:57:16.114Z,9.90
2019-02-07T13:58:43.188Z,10.10
2019-02-07T14:00:06.305Z,10.10
2019-02-07T14:01:23.019Z,10.10
2019-02-07T14:02:52.953Z,10.00
2019-02-07T14:04:15.979Z,10.00
2019-02-07T14:05:53.331Z,10.00
2019-02-07T14:07:17.728Z,10.00
2019-02-07T14:08:39.470Z,9.90
2019-02-07T14:10:09.696Z,9.90
2019-02-07T14:11:43.130Z,9.80
2019-02-07T14:13:06.226Z,9.70
2019-02-07T14:14:39.146Z,9.70
2019-02-07T14:16:02.496Z,9.60
2019-02-07T14:17:41.672Z,9.50
2019-02-07T14:19:03.936Z,9.40
2019-02-07T14:20:26.771Z,9.50
2019-02-07T14:21:49.491Z,9.70
2019-02-07T14:23:14.618Z,9.90
2019-02-07T14:24:45.859Z,9.90
2019-02-07T14:26:09.998Z,9.90
2019-02-07T14:27:40.126Z,10.00
2019-02-07T14:29:02.505Z,10.00
2019-02-07T14:30:36.736Z,9.80
2019-02-07T14:31:59.515Z,9.80
2019-02-07T14:33:09.908Z,10.00
2019-02-07T14:34:33.996Z,10.00
2019-02-07T14:35:51.296Z,10.10
2019-02-07T14:37:14.214Z,10.10
2019-02-07T14:38:37.012Z,10.10
2019-02-07T14:40:03.846Z,10.10
2019-02-07T14:41:29.824Z,10.10
2019-02-07T14:42:45.408Z,10.00
2019-02-07T14:44:08.073Z,10.00
2019-02-07T14:45:44.948Z,9.80
2019-02-07T14:46:50.042Z,9.70
2019-02-07T14:47:55.161Z,9.60
2019-02-07T14:49:00.279Z,9.60
2019-02-07T14:50:14.573Z,9.50
2019-02-07T14:51:12.886Z,9.40
2019-02-07T14:52:18.074Z,9.30
2019-02-07T14:53:23.172Z,9.30
2019-02-07T14:54:28.364Z,9.20
2019-02-07T14:55:33.490Z,9.10
2019-02-07T14:56:38.768Z,9.00
2019-02-07T14:57:43.890Z,8.90
2019-02-07T14:58:49.015Z,8.90
2019-02-07T14:59:55.192Z,8.80
2019-02-07T15:01:00.318Z,8.80
2019-02-07T15:02:05.774Z,8.70
2019-02-07T15:03:11.276Z,8.70
2019-02-07T15:04:16.382Z,8.60
2019-02-07T15:05:21.561Z,8.60
2019-02-07T15:06:26.778Z,8.50
2019-02-07T15:07:31.887Z,8.40
2019-02-07T15:08:36.989Z,8.40
2019-02-07T15:09:42.133Z,8.40
2019-02-07T15:10:47.237Z,8.30
2019-02-07T15:11:52.361Z,8.30
2019-02-07T15:12:57.459Z,8.30
2019-02-07T15:14:02.619Z,8.30
2019-02-07T15:15:09.914Z,8.20
2019-02-07T15:16:15.104Z,8.20
2019-02-07T15:17:20.208Z,8.20
2019-02-07T15:18:25.323Z,8.20
2019-02-07T15:19:31.508Z,8.20
2019-02-07T15:20:36.640Z,8.20
2019-02-07T15:21:41.825Z,8.20
2019-02-07T15:22:47.100Z,8.20
2019-02-07T15:23:52.825Z,8.20
2019-02-07T15:24:57.985Z,8.20
2019-02-07T15:26:03.087Z,8.10
2019-02-07T15:27:09.255Z,8.10
2019-02-07T15:28:14.369Z,8.10
2019-02-07T15:29:22.186Z,8.00
2019-02-07T15:30:26.384Z,7.80
2019-02-07T15:31:31.497Z,7.70
2019-02-07T15:32:36.636Z,7.50
2019-02-07T15:33:41.661Z,7.30
2019-02-07T15:34:46.778Z,7.10
2019-02-07T15:35:52.403Z,7.00
2019-02-07T15:36:57.537Z,6.90
2019-02-07T15:38:02.656Z,6.90
2019-02-07T15:39:11.516Z,6.90
2019-02-07T15:40:18.454Z,6.90
2019-02-07T15:41:23.533Z,6.80
2019-02-07T15:42:28.599Z,6.80
2019-02-07T15:43:33.658Z,6.80
2019-02-07T15:44:39.139Z,6.80
2019-02-07T15:45:44.604Z,6.90
2019-02-07T15:46:49.712Z,6.90
2019-02-07T15:47:55.096Z,6.90
2019-02-07T15:49:00.215Z,6.90
2019-02-07T15:50:10.094Z,7.00
2019-02-07T15:51:15.562Z,7.00
2019-02-07T15:52:20.652Z,7.00
2019-02-07T15:53:25.814Z,7.10
2019-02-07T15:54:30.933Z,7.10
2019-02-07T15:55:36.140Z,7.10
2019-02-07T15:56:41.254Z,7.10
2019-02-07T15:57:46.339Z,7.20
2019-02-07T15:59:14.438Z,7.20
2019-02-07T16:00:52.377Z,7.10
2019-02-07T16:02:15.076Z,7.10
2019-02-07T16:03:39.188Z,7.10
2019-02-07T16:04:45.772Z,7.10
2019-02-07T16:05:50.932Z,7.10
2019-02-07T16:06:55.988Z,7.10
2019-02-07T16:08:01.091Z,7.10
2019-02-07T16:09:07.932Z,7.10
2019-02-07T16:10:17.079Z,7.20
2019-02-07T16:11:22.329Z,7.20
2019-02-07T16:12:27.447Z,7.20
2019-02-07T16:13:32.657Z,7.10
2019-02-07T16:14:37.798Z,7.10
2019-02-07T16:15:42.898Z,7.20
2019-02-07T16:16:48.288Z,7.20
2019-02-07T16:17:53.709Z,7.20
2019-02-07T16:18:58.844Z,7.10
2019-02-07T16:20:04.710Z,7.10
2019-02-07T16:21:09.816Z,7.10
2019-02-07T16:22:14.926Z,7.20
2019-02-07T16:23:20.065Z,7.10
2019-02-07T16:24:25.359Z,7.10
2019-02-07T16:25:30.620Z,7.10
2019-02-07T16:26:35.763Z,7.10
2019-02-07T16:27:41.029Z,7.00
2019-02-07T16:28:46.141Z,7.00
2019-02-07T16:29:51.341Z,6.90
2019-02-07T16:30:56.391Z,6.90
2019-02-07T16:32:01.801Z,6.80
2019-02-07T16:33:08.129Z,6.70
2019-02-07T16:34:13.372Z,6.60
2019-02-07T16:35:18.896Z,6.60
2019-02-07T16:36:24.134Z,6.60
2019-02-07T16:37:30.519Z,6.60
2019-02-07T16:38:36.123Z,6.60
2019-02-07T16:39:41.648Z,6.60
2019-02-07T16:40:46.753Z,6.60
2019-02-07T16:41:51.860Z,6.70
2019-02-07T16:42:57.345Z,6.70
2019-02-07T16:44:02.722Z,6.70
2019-02-07T16:45:10.385Z,6.70
2019-02-07T16:46:15.509Z,6.70
2019-02-07T16:47:20.605Z,6.70
2019-02-07T16:48:25.805Z,6.70
2019-02-07T16:49:30.911Z,6.70
2019-02-07T16:50:36.250Z,6.70
2019-02-07T16:51:41.428Z,6.70
2019-02-07T16:52:46.552Z,6.70
2019-02-07T16:53:51.706Z,6.70
2019-02-07T16:54:56.860Z,6.70
2019-02-07T16:56:01.943Z,6.70
2019-02-07T16:57:06.965Z,6.70
2019-02-07T16:58:12.040Z,6.60
2019-02-07T16:59:17.725Z,6.60
2019-02-07T17:00:25.285Z,6.60
2019-02-07T17:01:30.807Z,6.60
2019-02-07T17:02:35.860Z,6.60
2019-02-07T17:03:41.396Z,6.60
2019-02-07T17:04:46.504Z,6.50
2019-02-07T17:05:51.669Z,6.50
2019-02-07T17:06:56.777Z,6.50
2019-02-07T17:08:01.949Z,6.50
2019-02-07T17:09:17.962Z,6.50
2019-02-07T17:10:25.956Z,6.50
2019-02-07T17:11:31.077Z,6.50
2019-02-07T17:12:36.274Z,6.50
2019-02-07T17:13:41.444Z,6.50
2019-02-07T17:14:46.574Z,6.50
2019-02-07T17:15:51.685Z,6.50
2019-02-07T17:16:56.837Z,6.50
2019-02-07T17:18:01.956Z,6.40
2019-02-07T17:19:07.100Z,6.50
2019-02-07T17:20:17.908Z,6.50
2019-02-07T17:21:23.027Z,6.50
2019-02-07T17:22:28.205Z,6.50
2019-02-07T17:23:33.390Z,6.50
2019-02-07T17:24:38.498Z,6.50
2019-02-07T17:25:43.835Z,6.50
2019-02-07T17:26:49.354Z,6.50
2019-02-07T17:27:54.523Z,6.50
2019-02-07T17:28:59.553Z,6.50
2019-02-07T17:30:09.954Z,6.50
2019-02-07T17:31:15.290Z,6.50
2019-02-07T17:32:20.492Z,6.50
2019-02-07T17:33:25.660Z,6.40
2019-02-07T17:34:30.733Z,6.40
2019-02-07T17:35:36.143Z,6.40
2019-02-07T17:36:41.248Z,6.30
2019-02-07T17:37:46.381Z,6.30
2019-02-07T17:38:51.420Z,6.30
2019-02-07T17:39:56.432Z,6.30
2019-02-07T17:41:01.598Z,6.30
2019-02-07T17:42:06.816Z,6.30
2019-02-07T17:43:12.015Z,6.30